• Join FlightAware (Why Join?)
  • Login
  • US Flag 
03:35AM EST


 

Airport Tracker/Info


-or-


 

Live Flight TrackerFlight Track Log ✈ SWA279 ✈ 23-Apr-2013 ✈ KLAX - KRNO

Flight Track Log - Related Links

Times and Time Zones

All times are in EDT time to prevent confusion due to time zone crossing. See the SWA279 flight status page for this flight to view local times or setup timezone preferences in your user account.

Time Position Orientation Groundspeed Altitude Reporting Facility
EDT Latitude Longitude Course Direction KTS MPH feet Rate Location/Type
07:55PM 33.9356 -118.6019 260° West 273 314 5,800  Level Los Angeles Center
07:56PM 33.9781 -118.6719 306° West 289 333 8,900 2,580 Climbing Los Angeles Center
07:57PM 34.0636 -118.6625 North 309 356 11,200 2,460 Climbing Los Angeles Center
07:58PM 34.1553 -118.6672 358° North 345 397 14,000 2,940 Climbing Los Angeles Center
07:59PM 34.2898 -118.6000 North  Level FlightAware Approximate
07:59PM 34.2583 -118.6836 353° North 369 425 17,400  Level Los Angeles Center
08:00PM 34.3883 -118.7039 353° North 394 453 21,100 3,180 Climbing Los Angeles Center
08:01PM 34.5000 -118.7206 353° North 402 463 24,000 2,520 Climbing Los Angeles Center
08:02PM 34.6086 -118.7644 342° North 414 476 26,400 2,040 Climbing Los Angeles Center
08:03PM 34.7183 -118.8200 337° Northwest 428 493 28,300 2,220 Climbing Los Angeles Center
08:04PM 34.8308 -118.8692 340° North 432 497 31,000 2,400 Climbing Los Angeles Center
08:05PM 34.9528 -118.8850 354° North 432 497 33,300 1,440 Climbing Los Angeles Center
08:06PM 35.0689 -118.9036 353° North 424 488 34,000 300 Climbing Los Angeles Center
08:07PM 35.2061 -118.9258 352° North 418 481 34,000  Level Los Angeles Center
08:08PM 35.3239 -118.9433 353° North 425 489 34,000  Level Los Angeles Center
08:09PM 35.4389 -118.9619 352° North 422 486 34,000  Level Los Angeles Center
08:10PM 35.5289 -118.9772 352° North 416 479 34,000  Level Los Angeles Center
08:11PM 35.6369 -118.9939 353° North 414 476 34,000  Level Oakland Center
08:13PM 35.8636 -119.0322 352° North 412 474 34,000  Level Oakland Center
08:14PM 35.9750 -119.0500 353° North 409 471 34,000  Level Oakland Center
08:15PM 36.0897 -119.0675 353° North 412 474 34,000  Level Oakland Center
08:16PM 36.2031 -119.0864 352° North 412 474 34,000  Level Oakland Center
08:17PM 36.3178 -119.1053 352° North 422 486 34,000  Level Oakland Center
08:18PM 36.4308 -119.1250 352° North 412 474 34,000  Level Oakland Center
08:19PM 36.5667 -119.1467 353° North 411 473 34,000  Level Oakland Center
08:20PM 36.6794 -119.1656 352° North 409 471 34,000  Level Oakland Center
08:21PM 36.7911 -119.1850 352° North 407 468 34,000 -540 Level Oakland Center
08:22PM 36.9033 -119.2047 352° North 407 468 33,000 -1,020 Descending Oakland Center
08:23PM 37.0136 -119.2231 352° North 407 468 32,000 -1,080 Descending Oakland Center
08:24PM 37.1211 -119.2431 352° North 396 456 30,900 -1,080 Descending Oakland Center
08:25PM 37.2275 -119.2611 352° North 388 447 29,900 -480 Descending Oakland Center
08:26PM 37.3306 -119.2806 351° North 383 441 30,000  Climbing Oakland Center
08:27PM 37.4347 -119.2975 353° North 387 445 30,000  Level Oakland Center
08:28PM 37.5569 -119.3128 354° North 374 430 30,000 -600 Level Oakland Center
08:29PM 37.6517 -119.3292 352° North 365 420 28,900 -1,140 Descending Oakland Center
08:30PM 37.7553 -119.3456 353° North 374 430 27,700 -1,200 Descending Oakland Center
08:31PM 37.8539 -119.3631 352° North 363 418 26,500 -1,140 Descending Oakland Center
08:32PM 37.9511 -119.3789 353° North 354 407 25,500 -1,080 Descending Oakland Center
08:33PM 38.0669 -119.3997 352° North 353 406 24,400 -780 Descending Oakland Center
08:34PM 38.1611 -119.4139 353° North 353 406 24,000 -720 Descending Oakland Center
08:36PM 38.2600 -119.4300 353° North 356 410 23,000 -960 Descending Oakland Center
08:37PM 38.3556 -119.4486 351° North 349 402 22,100 -900 Descending Oakland Center
08:38PM 38.4567 -119.4653 353° North 361 415 21,200 -960 Descending Oakland Center
08:39PM 38.5611 -119.4828 353° North 372 428 20,200 -960 Descending Oakland Center
08:40PM 38.6653 -119.5022 352° North 375 432 19,300 -960 Descending Oakland Center
08:41PM 38.7692 -119.5200 352° North 375 432 18,300 -960 Descending Oakland Center
08:42PM 38.8761 -119.5383 352° North 381 438 17,400 -1,140 Descending Oakland Center
08:43PM 38.9850 -119.5578 352° North 389 448 16,000 -1,680 Descending Oakland Center
08:44PM 39.1069 -119.5806 352° North 377 434 14,100 -1,680 Descending Oakland Center
08:45PM 39.2008 -119.5975 352° North 359 413 12,600 -1,500 Descending Oakland Center
08:46PM 39.2928 -119.6131 353° North 347 399 11,100 -1,380 Descending Oakland Center
08:47PM 39.3833 -119.6333 350° North 323 372 10,000 -780 Descending Northern Cal TRACON
08:48PM 39.4500 -119.6500 349° North 285 328 9,600 -780 Descending Northern Cal TRACON
08:49PM 39.5333 -119.6500 360° North 284 327 8,500 -840 Descending Northern Cal TRACON
08:50PM 39.6000 -119.6667 349° North 256 295 8,100 -600 Descending Northern Cal TRACON
08:51PM 39.6167 -119.7333 288° West 185 213 7,300 -960 Descending Northern Cal TRACON
08:52PM 39.5833 -119.7667 218° Southwest 166 191 6,100 -1,140 Descending Northern Cal TRACON
08:53PM 39.5333 -119.7667 180° South 165 190 5,100 -1,020 Descending Northern Cal TRACON
08:55PM 39.4991 -119.7681 237° Southwest  Level Estimated